Time;durP1;ratioP1;P1;durP2;ratioP2;P2;SDS_P1;SDS_P2;PMS_P1;PMS_P2;Temp;Humidity;BMP_temperature;BMP_pressure;BME280_temperature;BME280_humidity;BME280_pressure;Samples;Min_cycle;Max_cycle;Signal;HPM_P1;HPM_P2
2021/08/06 04:02:37;;;;;;;14.80;13.50;;;15.10;99.90;;;;;;5002476;23;20726;-69
2021/08/06 04:05:04;;;;;;;14.90;13.60;;;15.10;99.90;;;;;;4961489;28;20457;-69
2021/08/06 04:07:30;;;;;;;14.30;13.03;;;15.10;99.90;;;;;;4971697;28;20498;-69
2021/08/06 04:09:57;;;;;;;14.60;12.80;;;15.10;99.90;;;;;;4971708;28;20469;-69
2021/08/06 04:12:24;;;;;;;14.67;13.47;;;15.10;99.90;;;;;;4945753;28;20488;-69
2021/08/06 04:14:50;;;;;;;15.47;14.07;;;15.10;99.90;;;;;;4938547;29;20477;-69
2021/08/06 04:17:17;;;;;;;15.00;13.60;;;15.10;99.90;;;;;;4949118;29;20461;-69
2021/08/06 04:19:45;;;;;;;14.13;13.03;;;15.10;99.90;;;;;;4938281;29;20469;-69
2021/08/06 04:22:11;;;;;;;13.93;12.77;;;15.10;99.90;;;;;;4949541;29;20488;-69
2021/08/06 04:24:38;;;;;;;13.83;12.73;;;15.10;99.90;;;;;;4946311;28;20846;-69
2021/08/06 04:27:05;;;;;;;13.67;12.47;;;15.20;99.90;;;;;;4948929;29;20484;-69
2021/08/06 04:29:31;;;;;;;13.17;11.97;;;15.20;99.90;;;;;;4938308;29;20469;-69
2021/08/06 04:31:58;;;;;;;12.50;11.50;;;15.20;99.90;;;;;;4937843;29;20485;-69
2021/08/06 04:34:25;;;;;;;13.77;12.67;;;15.20;99.90;;;;;;4956985;28;20870;-69
2021/08/06 04:36:53;;;;;;;11.83;10.83;;;15.30;99.90;;;;;;4942813;28;20532;-70
2021/08/06 04:39:20;;;;;;;12.90;11.80;;;15.30;99.90;;;;;;4955839;29;20483;-70
2021/08/06 04:41:49;;;;;;;12.17;11.27;;;15.40;99.90;;;;;;4942001;28;20859;-70
2021/08/06 04:44:15;;;;;;;11.60;10.80;;;15.40;99.90;;;;;;4937077;29;20461;-70
2021/08/06 04:46:42;;;;;;;10.50;9.80;;;15.80;99.90;;;;;;4948534;29;20488;-70
2021/08/06 04:49:09;;;;;;;8.23;7.83;;;16.50;99.90;;;;;;4956522;28;21004;-70
2021/08/06 04:51:36;;;;;;;8.50;8.00;;;17.10;99.90;;;;;;4952582;28;20480;-70
2021/08/06 04:54:04;;;;;;;7.47;7.00;;;17.70;99.90;;;;;;4946203;28;20516;-70
2021/08/06 04:56:32;;;;;;;7.23;6.90;;;17.90;99.90;;;;;;4940187;29;20462;-71
2021/08/06 04:58:59;;;;;;;7.50;7.10;;;18.00;99.90;;;;;;4936686;29;20935;-71
2021/08/06 05:01:25;;;;;;;7.57;7.13;;;18.10;99.90;;;;;;4942988;29;20832;-71
2021/08/06 05:03:52;;;;;;;6.60;6.30;;;18.50;99.90;;;;;;4956250;28;20471;-71
2021/08/06 05:06:19;;;;;;;6.50;6.20;;;18.80;99.90;;;;;;4948509;28;20481;-71
2021/08/06 05:08:49;;;;;;;6.33;6.03;;;19.10;99.90;;;;;;4937263;29;20513;-71
2021/08/06 05:11:17;;;;;;;5.60;5.40;;;19.70;99.90;;;;;;4943488;29;20481;-70
2021/08/06 05:13:44;;;;;;;6.43;6.20;;;19.90;99.90;;;;;;4948092;28;20470;-70
2021/08/06 05:16:10;;;;;;;7.27;6.97;;;19.50;99.90;;;;;;4946033;28;20465;-70
2021/08/06 05:18:38;;;;;;;6.93;6.63;;;19.00;99.90;;;;;;4937419;29;20539;-70
2021/08/06 05:21:05;;;;;;;7.43;7.13;;;18.60;99.90;;;;;;4952170;29;20563;-71
2021/08/06 05:23:32;;;;;;;7.60;7.20;;;18.30;99.90;;;;;;4944701;28;20461;-70
2021/08/06 05:25:58;;;;;;;8.37;7.83;;;18.10;99.90;;;;;;4943073;29;20952;-70
2021/08/06 05:28:26;;;;;;;8.40;7.90;;;17.90;99.90;;;;;;4945609;28;20473;-70
2021/08/06 05:30:53;;;;;;;8.10;7.67;;;17.80;99.90;;;;;;4938360;29;20492;-71
2021/08/06 05:33:20;;;;;;;8.00;7.60;;;17.60;99.90;;;;;;4951811;29;20460;-70
2021/08/06 05:35:46;;;;;;;8.00;7.60;;;17.50;99.90;;;;;;4954691;28;20966;-70
2021/08/06 05:38:13;;;;;;;7.00;6.70;;;17.40;99.90;;;;;;4954771;28;20879;-70
2021/08/06 05:40:41;;;;;;;7.10;6.70;;;17.40;99.90;;;;;;4955528;28;20562;-70
2021/08/06 05:43:08;;;;;;;7.27;6.90;;;17.20;99.90;;;;;;4946478;28;20896;-70
2021/08/06 05:45:36;;;;;;;8.07;7.63;;;17.20;99.90;;;;;;4952310;29;20922;-70
2021/08/06 05:48:03;;;;;;;8.13;7.63;;;17.10;99.90;;;;;;4954440;28;20465;-70
2021/08/06 05:50:37;;;;;;;7.73;7.33;;;17.10;99.90;;;;;;4944271;28;20494;-70
2021/08/06 05:53:03;;;;;;;8.00;7.50;;;17.10;99.90;;;;;;4945567;29;20457;-71
2021/08/06 05:55:30;;;;;;;7.63;7.13;;;17.10;99.90;;;;;;4941062;28;20645;-70
2021/08/06 05:57:56;;;;;;;8.00;7.60;;;17.10;99.90;;;;;;4947709;29;20468;-70
2021/08/06 06:00:23;;;;;;;7.43;7.03;;;17.10;99.90;;;;;;4949884;28;20468;-70
2021/08/06 06:02:51;;;;;;;7.03;6.73;;;17.10;99.90;;;;;;4947046;28;20465;-70
2021/08/06 06:05:18;;;;;;;7.40;7.00;;;17.20;99.90;;;;;;4936101;29;20466;-70
2021/08/06 06:07:46;;;;;;;6.20;5.90;;;17.20;99.90;;;;;;4936545;29;20489;-70
2021/08/06 06:10:13;;;;;;;6.63;6.33;;;17.50;99.90;;;;;;4943078;29;20465;-70
2021/08/06 06:12:40;;;;;;;5.13;4.93;;;18.20;99.90;;;;;;4935526;28;20509;-70
2021/08/06 06:15:08;;;;;;;4.73;4.63;;;19.10;99.90;;;;;;4936136;29;20469;-70
2021/08/06 06:17:34;;;;;;;4.70;4.60;;;19.70;99.90;;;;;;4950207;28;20457;-70
2021/08/06 06:20:04;;;;;;;4.70;4.40;;;20.50;99.90;;;;;;4943021;29;20469;-70
2021/08/06 06:22:30;;;;;;;4.60;4.50;;;21.20;99.90;;;;;;4936306;29;20498;-71
2021/08/06 06:24:57;;;;;;;5.20;4.97;;;21.80;99.90;;;;;;4936142;28;20553;-71
2021/08/06 06:27:24;;;;;;;3.90;3.87;;;22.30;99.90;;;;;;4952503;28;20488;-71
2021/08/06 06:29:51;;;;;;;3.53;3.53;;;22.50;99.90;;;;;;4954282;28;20473;-71
2021/08/06 06:32:17;;;;;;;4.30;4.10;;;22.60;99.90;;;;;;4943855;28;20539;-71
2021/08/06 06:34:44;;;;;;;3.30;3.30;;;23.20;99.90;;;;;;4955137;28;20476;-71
2021/08/06 06:37:12;;;;;;;4.40;4.30;;;23.10;99.90;;;;;;4947772;28;20470;-71
2021/08/06 06:39:39;;;;;;;4.30;4.20;;;23.60;99.90;;;;;;4936158;28;20946;-71
2021/08/06 06:42:06;;;;;;;3.70;3.50;;;24.00;99.90;;;;;;4942536;29;20513;-71
2021/08/06 06:44:32;;;;;;;3.73;3.73;;;24.30;99.90;;;;;;4953964;28;20535;-71
2021/08/06 06:46:59;;;;;;;3.50;3.40;;;24.30;99.90;;;;;;4951053;28;20508;-71
2021/08/06 06:49:26;;;;;;;3.87;3.77;;;24.20;99.90;;;;;;4936713;28;20961;-72
2021/08/06 06:51:52;;;;;;;3.90;3.80;;;24.30;99.90;;;;;;4945532;28;20487;-72
2021/08/06 06:54:21;;;;;;;3.00;3.00;;;24.50;99.90;;;;;;4944656;28;20545;-72
2021/08/06 06:56:48;;;;;;;4.43;4.33;;;24.10;99.90;;;;;;4952581;29;20552;-72
2021/08/06 06:59:14;;;;;;;3.73;3.73;;;23.60;99.90;;;;;;4959535;28;20469;-73
2021/08/06 07:01:41;;;;;;;3.97;3.87;;;23.60;99.90;;;;;;4946811;28;20539;-72
2021/08/06 07:04:07;;;;;;;3.60;3.60;;;23.80;99.90;;;;;;4955228;28;20945;-72
2021/08/06 07:06:34;;;;;;;3.93;3.80;;;24.10;99.90;;;;;;4943292;28;20486;-72
2021/08/06 07:09:01;;;;;;;4.07;3.97;;;24.20;99.90;;;;;;4936400;28;20573;-72
2021/08/06 07:11:29;;;;;;;2.80;2.80;;;24.10;99.90;;;;;;4942656;29;20564;-73
2021/08/06 07:13:55;;;;;;;3.00;3.00;;;24.20;99.90;;;;;;4952825;28;20473;-72
2021/08/06 07:16:22;;;;;;;3.47;3.37;;;24.20;99.90;;;;;;4939101;29;20446;-72
2021/08/06 07:18:48;;;;;;;3.83;3.73;;;24.20;99.90;;;;;;4935580;29;20492;-71
2021/08/06 07:21:15;;;;;;;3.20;3.20;;;24.10;99.90;;;;;;4937846;29;20495;-72
2021/08/06 07:23:42;;;;;;;3.63;3.53;;;24.20;99.90;;;;;;4942658;29;20476;-71
2021/08/06 07:26:08;;;;;;;2.83;2.77;;;24.20;99.90;;;;;;4942417;29;20472;-72
2021/08/06 07:28:37;;;;;;;3.80;3.70;;;24.20;99.90;;;;;;4951781;28;20540;-72
2021/08/06 07:31:03;;;;;;;3.60;3.50;;;24.50;99.90;;;;;;4934960;29;20497;-72
2021/08/06 07:33:30;;;;;;;3.57;3.30;;;24.40;99.90;;;;;;4943876;29;20517;-71
2021/08/06 07:35:57;;;;;;;3.20;3.20;;;24.00;99.90;;;;;;4949327;28;20460;-73
2021/08/06 07:38:23;;;;;;;4.10;4.00;;;23.80;99.90;;;;;;4952486;28;20996;-71
2021/08/06 07:40:50;;;;;;;3.47;3.37;;;23.70;99.90;;;;;;4947215;28;21048;-72
2021/08/06 07:43:17;;;;;;;4.07;4.07;;;24.00;99.90;;;;;;4953155;29;20465;-72
2021/08/06 07:45:47;;;;;;;3.77;3.70;;;24.00;99.90;;;;;;4955874;28;20464;-72
2021/08/06 07:48:14;;;;;;;3.97;3.87;;;23.80;99.90;;;;;;4950144;29;21026;-72
2021/08/06 07:50:42;;;;;;;3.63;3.63;;;23.60;99.90;;;;;;4946701;28;20484;-72
2021/08/06 07:53:08;;;;;;;4.00;4.00;;;23.30;99.90;;;;;;4940331;29;20469;-71
2021/08/06 07:55:35;;;;;;;4.03;3.93;;;23.10;99.90;;;;;;4941297;29;20479;-72
2021/08/06 07:58:02;;;;;;;3.73;3.63;;;23.00;99.90;;;;;;4946705;28;20653;-72
2021/08/06 08:00:28;;;;;;;4.43;4.33;;;22.80;99.90;;;;;;4954365;28;20485;-72
2021/08/06 08:02:57;;;;;;;4.20;4.10;;;22.60;99.90;;;;;;4956694;28;20468;-71
2021/08/06 08:05:24;;;;;;;3.47;3.43;;;22.40;99.90;;;;;;4942384;28;20461;-70
2021/08/06 08:07:51;;;;;;;4.00;3.90;;;22.30;99.90;;;;;;4957408;28;20495;-71
2021/08/06 08:10:19;;;;;;;4.10;4.00;;;22.20;99.90;;;;;;4951747;28;20532;-72
2021/08/06 08:12:47;;;;;;;3.97;3.90;;;22.20;99.90;;;;;;4951770;29;20555;-71
2021/08/06 08:15:14;;;;;;;3.50;3.50;;;22.20;99.90;;;;;;4940606;28;20524;-71
2021/08/06 08:17:41;;;;;;;4.40;4.30;;;22.30;99.90;;;;;;4935122;29;20505;-71
2021/08/06 08:20:10;;;;;;;5.17;4.97;;;22.30;99.90;;;;;;4937445;29;20469;-72
2021/08/06 08:22:37;;;;;;;6.20;5.83;;;22.10;99.90;;;;;;4935939;29;20548;-71
2021/08/06 08:25:06;;;;;;;4.67;4.47;;;22.00;99.90;;;;;;4938224;29;20488;-72
2021/08/06 08:27:33;;;;;;;4.60;4.50;;;22.00;99.90;;;;;;4937570;29;20493;-72
2021/08/06 08:29:59;;;;;;;5.47;5.27;;;22.20;99.90;;;;;;4937709;29;20470;-72
2021/08/06 08:32:26;;;;;;;5.60;5.40;;;22.10;99.90;;;;;;4936927;29;21001;-73
2021/08/06 08:34:53;;;;;;;4.50;4.40;;;22.10;99.90;;;;;;4937687;29;20466;-72
2021/08/06 08:37:21;;;;;;;5.67;5.43;;;22.10;99.90;;;;;;4938925;29;20461;-72
2021/08/06 08:39:47;;;;;;;5.63;5.43;;;22.10;99.90;;;;;;4954287;29;20465;-72
2021/08/06 08:42:15;;;;;;;5.57;5.37;;;22.30;99.90;;;;;;4952363;28;20488;-72
2021/08/06 08:44:42;;;;;;;5.90;5.60;;;22.40;99.90;;;;;;4951019;28;20460;-72
2021/08/06 08:47:09;;;;;;;6.03;5.83;;;22.50;99.90;;;;;;4945915;28;20481;-72
2021/08/06 08:49:37;;;;;;;5.30;5.10;;;22.50;99.90;;;;;;4940292;28;20553;-72
2021/08/06 08:52:05;;;;;;;6.60;6.40;;;22.50;99.90;;;;;;4936019;29;20501;-72
2021/08/06 08:54:33;;;;;;;6.63;6.23;;;22.60;99.90;;;;;;4953086;29;20465;-72
2021/08/06 08:57:00;;;;;;;5.30;5.10;;;22.50;99.90;;;;;;4947322;28;20957;-71
2021/08/06 08:59:27;;;;;;;6.90;6.57;;;22.50;99.90;;;;;;4937956;29;20469;-69
2021/08/06 09:01:53;;;;;;;5.70;5.50;;;22.40;99.90;;;;;;4938358;29;20501;-70
2021/08/06 09:04:22;;;;;;;5.73;5.53;;;22.30;99.90;;;;;;4944972;29;20462;-70
2021/08/06 09:06:49;;;;;;;6.10;5.80;;;22.40;99.90;;;;;;4943425;28;20612;-68
2021/08/06 09:09:17;;;;;;;5.67;5.37;;;22.50;99.90;;;;;;4954251;28;20503;-71
2021/08/06 09:11:45;;;;;;;6.80;6.50;;;22.40;99.90;;;;;;4943506;29;20538;-71
2021/08/06 09:14:21;;;;;;;5.77;5.57;;;22.40;99.90;;;;;;4953943;28;20521;-70
2021/08/06 09:16:55;;;;;;;5.77;5.57;;;22.40;99.90;;;;;;4948374;29;20468;-70
2021/08/06 09:19:22;;;;;;;5.80;5.30;;;22.50;99.90;;;;;;4954328;28;20547;-70
2021/08/06 09:21:49;;;;;;;5.90;5.60;;;22.50;99.90;;;;;;4947394;28;20493;-71
2021/08/06 09:24:16;;;;;;;6.03;5.83;;;22.50;99.90;;;;;;4943454;28;20468;-71
2021/08/06 09:26:45;;;;;;;5.63;5.37;;;22.60;99.90;;;;;;4946485;28;20480;-71
2021/08/06 09:29:13;;;;;;;5.47;5.30;;;22.70;99.90;;;;;;4948857;29;20465;-70
2021/08/06 09:31:43;;;;;;;6.83;6.50;;;22.70;99.90;;;;;;4952002;29;20476;-71
2021/08/06 09:34:19;;;;;;;6.07;5.87;;;22.70;99.90;;;;;;4954274;29;20461;-70
2021/08/06 09:37:15;;;;;;;6.43;6.13;;;22.80;99.90;;;;;;4938971;29;20460;-70
2021/08/06 09:39:45;;;;;;;7.00;6.60;;;22.80;99.90;;;;;;4915342;29;20470;-70
2021/08/06 09:42:20;;;;;;;6.70;6.40;;;22.80;99.90;;;;;;4943816;29;20563;-71
2021/08/06 09:44:57;;;;;;;7.03;6.73;;;22.80;99.90;;;;;;4944935;28;20577;-69
2021/08/06 09:47:24;;;;;;;6.80;6.50;;;22.90;99.90;;;;;;4942327;29;20520;-70
2021/08/06 09:49:52;;;;;;;7.13;6.83;;;22.80;99.90;;;;;;4944968;29;20465;-71
2021/08/06 09:52:28;;;;;;;6.33;6.13;;;22.70;99.90;;;;;;4939364;29;20501;-71
2021/08/06 09:54:55;;;;;;;7.27;6.87;;;22.80;99.90;;;;;;4940184;29;20469;-71
2021/08/06 09:57:23;;;;;;;6.13;5.83;;;23.00;99.90;;;;;;4936648;29;20472;-71
2021/08/06 09:59:55;;;;;;;5.83;5.63;;;23.10;99.90;;;;;;4937222;29;20956;-71
2021/08/06 10:02:24;;;;;;;6.20;5.90;;;23.20;99.90;;;;;;4936260;29;20509;-71
2021/08/06 10:05:03;;;;;;;5.57;5.37;;;23.30;99.90;;;;;;4941454;29;20467;-72
2021/08/06 10:07:31;;;;;;;5.67;5.37;;;23.40;99.90;;;;;;4942861;28;20500;-72
2021/08/06 10:09:58;;;;;;;5.50;5.30;;;23.40;99.90;;;;;;4936908;29;20473;-71
2021/08/06 10:12:26;;;;;;;5.70;5.50;;;23.30;99.90;;;;;;4937532;29;20980;-71
2021/08/06 10:14:53;;;;;;;6.47;6.03;;;23.40;99.90;;;;;;4942942;29;20472;-71
2021/08/06 10:17:21;;;;;;;6.20;5.87;;;23.50;99.90;;;;;;4944076;28;20484;-71
2021/08/06 10:19:48;;;;;;;5.83;5.53;;;23.60;99.90;;;;;;4935898;29;20470;-71
2021/08/06 10:22:15;;;;;;;6.40;6.00;;;23.70;99.90;;;;;;4936094;29;20476;-71
2021/08/06 10:24:46;;;;;;;5.40;5.20;;;23.80;99.90;;;;;;4935912;29;20517;-71
2021/08/06 10:27:13;;;;;;;6.20;5.80;;;23.90;99.90;;;;;;4944515;29;20480;-71
2021/08/06 10:30:00;;;;;;;5.97;5.67;;;23.90;99.90;;;;;;4953826;28;20546;-71
2021/08/06 10:32:27;;;;;;;5.90;5.70;;;23.90;99.90;;;;;;4951893;28;21004;-72
2021/08/06 10:35:14;;;;;;;5.83;5.60;;;24.00;99.90;;;;;;4949489;28;20811;-72
2021/08/06 10:37:57;;;;;;;6.40;6.10;;;24.10;99.90;;;;;;4941977;28;20485;-71
2021/08/06 10:44:03;;;;;;;6.50;6.20;;;24.10;99.90;;;;;;4928098;29;20500;-71
2021/08/06 10:46:57;;;;;;;6.73;5.47;;;24.20;99.90;;;;;;4935252;29;20461;-71
2021/08/06 10:49:25;;;;;;;6.47;6.17;;;24.60;99.90;;;;;;4933777;29;20498;-72
2021/08/06 10:52:17;;;;;;;6.10;5.80;;;24.60;99.90;;;;;;4934147;29;20477;-71
2021/08/06 10:54:44;;;;;;;5.63;5.43;;;24.80;99.90;;;;;;4943004;29;20451;-71
2021/08/06 10:57:38;;;;;;;5.67;5.40;;;24.70;99.90;;;;;;4938318;28;20492;-72
2021/08/06 11:00:06;;;;;;;6.80;6.50;;;24.70;99.90;;;;;;4944978;28;20472;-72
2021/08/06 11:02:45;;;;;;;6.40;6.10;;;24.70;99.90;;;;;;4941097;28;20470;-70
2021/08/06 11:05:29;;;;;;;6.03;5.83;;;24.70;99.90;;;;;;4940420;29;20471;-71
2021/08/06 11:07:56;;;;;;;6.73;6.33;;;24.80;99.90;;;;;;4938274;29;20485;-71
2021/08/06 11:10:48;;;;;;;6.73;6.20;;;25.00;99.90;;;;;;4935989;29;20493;-70
2021/08/06 11:13:53;;;;;;;6.63;6.33;;;24.80;99.90;;;;;;4939196;29;20565;-71
2021/08/06 11:16:21;;;;;;;6.50;6.20;;;24.90;99.90;;;;;;4938655;29;20552;-70
2021/08/06 11:18:50;;;;;;;7.33;6.93;;;24.90;99.90;;;;;;4949822;28;20463;-70
2021/08/06 11:21:19;;;;;;;6.97;6.40;;;25.00;99.90;;;;;;4945281;29;20481;-71
2021/08/06 11:23:59;;;;;;;6.00;5.77;;;25.00;99.90;;;;;;4937620;29;20449;-70
2021/08/06 11:26:26;;;;;;;5.90;5.60;;;25.00;99.90;;;;;;4950051;29;20527;-70
2021/08/06 11:28:57;;;;;;;6.63;6.23;;;24.70;99.90;;;;;;4958809;28;20500;-70
2021/08/06 11:31:24;;;;;;;7.53;7.03;;;24.80;99.90;;;;;;4960720;28;20492;-70
2021/08/06 11:34:00;;;;;;;8.03;7.43;;;24.80;99.90;;;;;;4958312;28;20564;-70
2021/08/06 11:36:27;;;;;;;7.23;6.93;;;24.70;99.90;;;;;;4941112;28;20472;-71
2021/08/06 11:38:58;;;;;;;6.50;6.00;;;24.80;99.90;;;;;;4940547;29;20506;-71
2021/08/06 11:41:25;;;;;;;7.60;7.30;;;25.00;99.90;;;;;;4934807;29;20954;-71
2021/08/06 11:43:52;;;;;;;7.37;7.00;;;25.00;99.90;;;;;;4933784;29;20922;-71
2021/08/06 11:46:19;;;;;;;7.03;6.63;;;25.20;99.90;;;;;;4949210;29;20512;-72
2021/08/06 11:48:48;;;;;;;7.80;7.40;;;25.00;99.90;;;;;;4953365;28;20973;-71
2021/08/06 11:51:16;;;;;;;8.77;8.27;;;24.80;99.90;;;;;;4954469;28;20484;-72
2021/08/06 11:53:42;;;;;;;7.20;6.90;;;24.90;99.90;;;;;;4952591;28;20457;-71
2021/08/06 11:56:14;;;;;;;7.57;7.17;;;25.00;99.90;;;;;;4941581;28;20469;-72
2021/08/06 11:58:42;;;;;;;8.90;8.40;;;25.20;99.90;;;;;;4934092;29;20493;-71
2021/08/06 12:01:10;;;;;;;8.77;8.27;;;25.00;99.90;;;;;;4935120;29;20501;-71
2021/08/06 12:03:47;;;;;;;7.60;7.30;;;24.90;99.90;;;;;;4934116;29;20477;-71
2021/08/06 12:06:16;;;;;;;8.80;8.27;;;24.90;99.90;;;;;;4947362;29;20484;-71
2021/08/06 12:08:44;;;;;;;7.10;6.70;;;25.00;99.90;;;;;;4953569;28;20511;-71
2021/08/06 12:11:16;;;;;;;8.17;7.80;;;25.10;99.90;;;;;;4951532;28;20492;-71
2021/08/06 12:13:49;;;;;;;7.30;7.00;;;25.10;99.90;;;;;;4952481;28;20468;-72
2021/08/06 12:16:18;;;;;;;8.17;7.77;;;25.10;99.90;;;;;;4940218;28;20497;-72
2021/08/06 12:18:47;;;;;;;9.40;8.93;;;25.10;99.90;;;;;;4934589;29;20521;-71
2021/08/06 12:21:18;;;;;;;8.60;8.00;;;25.00;99.90;;;;;;4935501;29;20496;-72
2021/08/06 12:23:47;;;;;;;8.50;8.00;;;24.90;99.90;;;;;;4934643;29;20539;-71
2021/08/06 12:26:17;;;;;;;8.03;7.70;;;25.00;99.90;;;;;;4948427;28;20463;-71
2021/08/06 12:28:46;;;;;;;6.80;6.40;;;25.20;99.90;;;;;;4956021;28;20519;-71
2021/08/06 12:31:21;;;;;;;6.80;6.47;;;25.40;99.90;;;;;;4957597;28;20496;-72
2021/08/06 12:33:51;;;;;;;7.10;6.80;;;25.50;99.90;;;;;;4956707;28;20574;-71
2021/08/06 12:36:21;;;;;;;7.43;7.13;;;25.60;99.90;;;;;;4944024;28;20516;-70
2021/08/06 12:38:51;;;;;;;7.57;7.30;;;25.40;99.90;;;;;;4937767;29;20946;-71
2021/08/06 12:41:29;;;;;;;7.90;7.50;;;25.20;99.90;;;;;;4937856;29;20515;-71
2021/08/06 12:44:22;;;;;;;7.40;6.90;;;25.00;99.90;;;;;;4936496;29;20542;-71
2021/08/06 12:46:57;;;;;;;7.27;6.97;;;24.70;99.90;;;;;;4954532;29;20945;-72
2021/08/06 12:49:26;;;;;;;7.60;7.30;;;24.60;99.90;;;;;;4956278;28;20515;-72
2021/08/06 12:52:01;;;;;;;6.63;5.90;;;24.50;99.90;;;;;;4937242;29;20862;-72
2021/08/06 12:54:47;;;;;;;7.53;7.00;;;24.20;99.90;;;;;;4937674;29;20472;-72
2021/08/06 12:57:14;;;;;;;6.90;6.60;;;24.00;99.90;;;;;;4937342;29;20830;-71
2021/08/06 12:59:44;;;;;;;6.87;6.40;;;23.80;99.90;;;;;;4937252;29;20474;-72
2021/08/06 13:02:16;;;;;;;6.47;6.27;;;23.70;99.90;;;;;;4937040;29;20533;-71
2021/08/06 13:04:43;;;;;;;7.03;6.70;;;23.60;99.90;;;;;;4937450;29;20466;-71
2021/08/06 13:07:28;;;;;;;6.93;6.47;;;23.70;99.90;;;;;;4937343;29;20461;-71
2021/08/06 13:09:55;;;;;;;6.17;5.97;;;23.70;99.90;;;;;;4937054;29;20516;-72
2021/08/06 13:12:22;;;;;;;6.10;5.80;;;23.90;99.90;;;;;;4936794;29;20486;-72
2021/08/06 13:14:49;;;;;;;6.70;6.40;;;23.90;99.90;;;;;;4937554;29;20465;-71
2021/08/06 13:17:18;;;;;;;6.87;6.50;;;23.90;99.90;;;;;;4937518;29;20491;-71
2021/08/06 13:19:45;;;;;;;6.30;6.00;;;23.80;99.90;;;;;;4936952;29;20466;-71
2021/08/06 13:22:14;;;;;;;6.67;6.47;;;23.60;99.90;;;;;;4937016;29;20512;-72
2021/08/06 13:24:45;;;;;;;6.20;5.90;;;23.50;99.90;;;;;;4936937;29;20493;-71
2021/08/06 13:27:11;;;;;;;6.90;6.50;;;23.50;99.90;;;;;;4955190;29;20563;-72
2021/08/06 13:29:38;;;;;;;6.70;6.03;;;23.40;99.90;;;;;;4955562;28;20497;-71
2021/08/06 13:32:06;;;;;;;7.10;6.70;;;23.40;99.90;;;;;;4954192;28;20555;-71
2021/08/06 13:34:34;;;;;;;8.03;7.53;;;23.30;99.90;;;;;;4937897;29;20461;-71
2021/08/06 13:37:00;;;;;;;8.90;8.20;;;23.30;99.90;;;;;;4948469;28;20465;-71
2021/08/06 13:39:27;;;;;;;8.80;8.30;;;23.20;99.90;;;;;;4944181;29;20465;-71
2021/08/06 13:41:55;;;;;;;8.77;8.27;;;23.00;99.90;;;;;;4939494;29;20523;-70
2021/08/06 13:44:22;;;;;;;8.70;8.30;;;22.80;99.90;;;;;;4935747;29;20557;-71
2021/08/06 13:46:49;;;;;;;8.67;8.07;;;22.70;99.90;;;;;;4936597;29;20508;-70
2021/08/06 13:49:15;;;;;;;7.80;7.37;;;22.60;99.90;;;;;;4947122;29;20484;-70
2021/08/06 13:51:42;;;;;;;8.20;7.73;;;22.50;99.90;;;;;;4954347;29;20487;-70
2021/08/06 13:54:09;;;;;;;9.43;8.83;;;22.60;99.90;;;;;;4952380;28;20464;-70
2021/08/06 13:56:36;;;;;;;9.40;8.80;;;22.70;99.90;;;;;;4942636;28;20488;-71
2021/08/06 13:59:04;;;;;;;8.60;8.10;;;22.80;99.90;;;;;;4949720;29;20499;-70
2021/08/06 14:01:31;;;;;;;7.83;7.43;;;22.80;99.90;;;;;;4935845;28;20604;-71
2021/08/06 14:03:58;;;;;;;9.47;8.97;;;22.80;99.90;;;;;;4940230;29;20469;-70
2021/08/06 14:06:24;;;;;;;9.00;8.40;;;22.70;99.90;;;;;;4942895;28;20528;-70
2021/08/06 14:08:51;;;;;;;9.77;9.20;;;22.40;99.90;;;;;;4941324;29;20497;-70
2021/08/06 14:11:18;;;;;;;10.57;9.87;;;21.90;99.90;;;;;;4937528;28;20496;-70
2021/08/06 14:13:45;;;;;;;10.50;9.80;;;21.70;99.90;;;;;;4935777;29;20465;-70
2021/08/06 14:16:13;;;;;;;10.67;9.87;;;21.70;99.90;;;;;;4936237;29;20838;-70
2021/08/06 14:18:39;;;;;;;9.60;9.00;;;21.90;99.90;;;;;;4935755;29;20465;-70
2021/08/06 14:21:07;;;;;;;9.77;8.90;;;22.00;99.90;;;;;;4935945;29;20496;-70
2021/08/06 14:23:34;;;;;;;9.80;9.20;;;22.00;99.90;;;;;;4935874;29;20548;-70
2021/08/06 14:26:03;;;;;;;9.80;9.23;;;22.10;99.90;;;;;;4936398;29;20462;-71
2021/08/06 14:28:30;;;;;;;8.90;8.27;;;22.20;99.90;;;;;;4935476;29;20499;-71
2021/08/06 14:30:57;;;;;;;10.63;9.97;;;22.30;99.90;;;;;;4936419;29;20497;-72
2021/08/06 14:33:25;;;;;;;9.13;8.63;;;22.30;99.90;;;;;;4946697;28;20480;-71
2021/08/06 14:35:52;;;;;;;9.17;8.67;;;22.40;99.90;;;;;;4944782;28;20457;-70
2021/08/06 14:38:18;;;;;;;8.57;8.07;;;22.40;99.90;;;;;;4935703;29;20473;-71
2021/08/06 14:40:45;;;;;;;9.87;9.37;;;22.40;99.90;;;;;;4935773;29;20477;-72
2021/08/06 14:43:12;;;;;;;8.97;8.40;;;22.30;99.90;;;;;;4937114;29;20493;-72
2021/08/06 14:45:39;;;;;;;10.20;9.60;;;22.30;99.90;;;;;;4949714;28;20458;-72
2021/08/06 14:48:06;;;;;;;10.53;9.67;;;22.20;99.90;;;;;;4946366;28;20551;-72
2021/08/06 14:50:34;;;;;;;11.57;10.67;;;22.10;99.90;;;;;;4944067;28;20907;-73
2021/08/06 14:53:01;;;;;;;10.40;9.57;;;21.80;99.90;;;;;;4954059;28;20464;-72
2021/08/06 14:55:27;;;;;;;10.57;9.77;;;21.50;99.90;;;;;;4943392;28;20524;-72
2021/08/06 14:57:54;;;;;;;6.13;5.73;;;21.20;99.90;;;;;;4945572;29;20503;-71
2021/08/06 15:00:21;;;;;;;6.77;6.37;;;20.80;99.90;;;;;;4932732;29;20462;-72
2021/08/06 15:02:48;;;;;;;6.77;6.40;;;20.60;99.90;;;;;;4935584;29;20540;-72
2021/08/06 15:05:14;;;;;;;6.50;6.10;;;20.50;99.90;;;;;;4934719;29;20470;-72
2021/08/06 15:07:43;;;;;;;6.57;6.27;;;20.40;99.90;;;;;;4936600;29;20469;-72
2021/08/06 15:10:11;;;;;;;7.00;6.60;;;20.30;99.90;;;;;;4935421;29;20521;-72
2021/08/06 15:12:37;;;;;;;7.30;6.90;;;20.20;99.90;;;;;;4934084;28;20513;-73
2021/08/06 15:15:05;;;;;;;6.80;6.40;;;20.20;99.90;;;;;;4934802;29;20465;-73
2021/08/06 15:17:32;;;;;;;8.67;7.93;;;20.20;99.90;;;;;;4934420;29;20469;-73
2021/08/06 15:19:58;;;;;;;9.33;8.53;;;20.20;99.90;;;;;;4936718;29;20453;-72
2021/08/06 15:22:25;;;;;;;8.80;8.10;;;20.10;99.90;;;;;;4936688;28;20585;-73
2021/08/06 15:24:54;;;;;;;8.10;7.60;;;19.80;99.90;;;;;;4949220;29;20531;-73
2021/08/06 15:27:21;;;;;;;8.33;7.70;;;19.70;99.90;;;;;;4936293;28;21024;-73
2021/08/06 15:29:48;;;;;;;7.07;6.67;;;19.60;99.90;;;;;;4934889;29;20503;-72
2021/08/06 15:32:15;;;;;;;8.20;7.70;;;19.60;99.90;;;;;;4934504;29;20496;-72
2021/08/06 15:34:42;;;;;;;7.17;6.60;;;19.70;99.90;;;;;;4942925;29;20528;-72
2021/08/06 15:37:09;;;;;;;7.07;6.50;;;19.80;99.90;;;;;;4942539;29;20500;-73
2021/08/06 15:39:36;;;;;;;7.00;6.63;;;19.90;99.90;;;;;;4947463;28;20458;-73
2021/08/06 15:42:05;;;;;;;7.50;6.90;;;19.90;99.90;;;;;;4936976;29;20485;-71
2021/08/06 15:44:32;;;;;;;7.10;6.60;;;19.90;99.90;;;;;;4934786;29;20521;-72
2021/08/06 15:46:59;;;;;;;7.27;6.77;;;19.90;99.90;;;;;;4935163;29;20469;-72
2021/08/06 15:49:26;;;;;;;6.87;6.47;;;20.00;99.90;;;;;;4946505;29;20770;-72
2021/08/06 15:51:52;;;;;;;7.57;7.10;;;20.00;99.90;;;;;;4946104;29;20489;-72
2021/08/06 15:54:19;;;;;;;4.77;4.67;;;20.10;99.90;;;;;;4941727;29;20505;-71
2021/08/06 15:56:45;;;;;;;5.37;5.07;;;20.20;99.90;;;;;;4943682;29;20464;-71
2021/08/06 15:59:13;;;;;;;4.37;4.27;;;20.30;99.90;;;;;;4935310;28;21234;-71
2021/08/06 16:01:40;;;;;;;5.00;4.80;;;20.30;99.90;;;;;;4937579;29;20497;-71
2021/08/06 16:04:07;;;;;;;5.37;5.10;;;20.40;99.90;;;;;;4938116;29;20465;-70
2021/08/06 16:06:33;;;;;;;4.50;4.30;;;20.50;99.90;;;;;;4938623;29;20597;-70
2021/08/06 16:09:00;;;;;;;4.83;4.73;;;20.70;99.90;;;;;;4947812;29;20465;-70
2021/08/06 16:11:27;;;;;;;4.10;4.00;;;20.70;99.90;;;;;;4948844;28;20550;-71
2021/08/06 16:13:53;;;;;;;3.70;3.60;;;20.70;99.90;;;;;;4937083;29;20465;-71
2021/08/06 16:16:21;;;;;;;4.07;3.97;;;20.80;99.90;;;;;;4938986;29;20465;-71
2021/08/06 16:18:48;;;;;;;3.23;3.13;;;20.80;99.90;;;;;;4936912;29;20465;-69
2021/08/06 16:21:15;;;;;;;3.50;3.40;;;20.80;99.90;;;;;;4936124;28;20493;-69
2021/08/06 16:23:42;;;;;;;4.90;4.50;;;20.80;99.90;;;;;;4954234;29;20979;-70
2021/08/06 16:26:08;;;;;;;3.30;3.20;;;20.60;99.90;;;;;;4951887;28;20485;-70
2021/08/06 16:28:36;;;;;;;4.00;3.70;;;20.50;99.90;;;;;;4954178;28;20896;-70
2021/08/06 16:31:03;;;;;;;4.97;4.77;;;20.30;99.90;;;;;;4955574;28;20811;-70
2021/08/06 16:33:31;;;;;;;6.50;6.00;;;20.10;99.90;;;;;;4950796;28;20461;-71
2021/08/06 16:35:59;;;;;;;6.47;6.07;;;20.00;99.90;;;;;;4952619;28;20457;-70
2021/08/06 16:38:26;;;;;;;6.67;6.33;;;19.90;99.90;;;;;;4949869;29;20953;-71
2021/08/06 16:40:53;;;;;;;8.60;7.90;;;19.80;99.90;;;;;;4964924;28;20492;-70
2021/08/06 16:43:20;;;;;;;6.87;6.47;;;19.80;99.90;;;;;;4941776;28;20517;-70
2021/08/06 16:45:47;;;;;;;6.80;6.40;;;19.80;99.90;;;;;;4951793;28;20466;-70
2021/08/06 16:48:13;;;;;;;7.70;7.20;;;19.90;99.90;;;;;;4939402;28;20473;-70
2021/08/06 16:50:42;;;;;;;7.63;7.13;;;20.00;99.90;;;;;;4943555;29;20515;-70
2021/08/06 16:53:09;;;;;;;7.57;7.13;;;20.00;99.90;;;;;;4955095;28;20460;-69
2021/08/06 16:55:35;;;;;;;6.70;6.30;;;20.00;99.90;;;;;;4942976;28;20531;-70
2021/08/06 16:58:02;;;;;;;7.87;7.27;;;19.90;99.90;;;;;;4955279;28;20568;-70